map of ENU home
ENU - Airport
Location
City:  Enugu, Enugu, Nigeria
Name:Akanu Ibiam International Airport
ICAO:DNEN
IATA:ENU

Details
Type:Airport (Aerodrome, Airfield)
Use:Public/Civil, International (customs port of entry)
Latitude:628'27"N (6.474272)
Longitude:733'43"E (7.561961)
Datum:WGS 1984
Elevation:466 ft (142 m)
Variation:1.10W (WMM2015 magnetic declination)
0.11 annual change
Runways:1
Longest:7879 × 148 ft (2402 × 45 m), paved

Time
Time Zone:UTC+1
Local Time:

Weather
METAR:DNEN 151100Z 19005KT 9999 BKN013 30/22 Q1013
TAF:DNEN 150930Z 1512/1618 22011KT 9999 SCT012 PROB30
TEMPO 1516/1521 TS BKN010 FEW020CB
BECMG 1522/1524 VRB02KT SCT009

Related Locations
Nearby:
Farthest:CIS: 12171 mi / 19587 km
Kanton Island (Canton Island, Abariringa Island) [Canton Island Airport], P, KI

Find:

   beyond  
but within

Other Information
Maps:
NOTAMs:
Links:
Sources:

  
  • flag of Nigeria
  

Sectional Chart

Flight Planning
at skyvector.com

Satellite Image

Google Maps Satellite view

 

Copyright © 2004-2018 Karl L. Swartz. All rights reserved.
The Great Circle Mapper name and logo are trademarks of the Great Circle Mapper.
All other trademarks mentioned herein belong to their respective owners.
Please see credits for attibutions and further copyright information.

  Follow gcmap on Facebook Follow gcmap on Twitter Follow gcmap on Google+ GCmap on LinkedIn

hCard Microformat

Geo Microformat